sensor_id;sensor_type;location;lat;lon;timestamp;P1;durP1;ratioP1;P2;durP2;ratioP2
79308;SDS011;68767;53.078;7.386;2023-07-02T00:00:04;6.78;;;3.78;;
79308;SDS011;68767;53.078;7.386;2023-07-02T00:02:37;8.48;;;3.88;;
79308;SDS011;68767;53.078;7.386;2023-07-02T00:05:05;7.93;;;3.17;;
79308;SDS011;68767;53.078;7.386;2023-07-02T00:07:34;13.13;;;3.83;;
79308;SDS011;68767;53.078;7.386;2023-07-02T00:10:03;13.18;;;4.07;;
79308;SDS011;68767;53.078;7.386;2023-07-02T00:12:31;9.85;;;4.13;;
79308;SDS011;68767;53.078;7.386;2023-07-02T00:14:58;9.15;;;3.70;;
79308;SDS011;68767;53.078;7.386;2023-07-02T00:19:55;9.32;;;3.83;;
79308;SDS011;68767;53.078;7.386;2023-07-02T00:22:22;7.80;;;3.92;;
79308;SDS011;68767;53.078;7.386;2023-07-02T00:24:49;8.05;;;3.67;;
79308;SDS011;68767;53.078;7.386;2023-07-02T00:27:17;10.57;;;4.10;;
79308;SDS011;68767;53.078;7.386;2023-07-02T00:29:45;15.13;;;5.18;;
79308;SDS011;68767;53.078;7.386;2023-07-02T00:32:13;9.90;;;4.28;;
79308;SDS011;68767;53.078;7.386;2023-07-02T00:34:40;16.30;;;4.43;;
79308;SDS011;68767;53.078;7.386;2023-07-02T00:37:06;11.00;;;4.32;;
79308;SDS011;68767;53.078;7.386;2023-07-02T00:39:33;11.00;;;4.43;;
79308;SDS011;68767;53.078;7.386;2023-07-02T00:42:02;13.95;;;4.55;;
79308;SDS011;68767;53.078;7.386;2023-07-02T00:44:30;13.00;;;4.75;;
79308;SDS011;68767;53.078;7.386;2023-07-02T00:46:57;13.93;;;4.60;;
79308;SDS011;68767;53.078;7.386;2023-07-02T00:49:24;15.15;;;4.93;;
79308;SDS011;68767;53.078;7.386;2023-07-02T00:51:52;12.75;;;4.30;;
79308;SDS011;68767;53.078;7.386;2023-07-02T00:54:19;17.02;;;4.78;;
79308;SDS011;68767;53.078;7.386;2023-07-02T00:56:46;11.05;;;3.90;;
79308;SDS011;68767;53.078;7.386;2023-07-02T00:59:14;13.98;;;4.57;;
79308;SDS011;68767;53.078;7.386;2023-07-02T01:01:41;15.20;;;5.22;;
79308;SDS011;68767;53.078;7.386;2023-07-02T01:04:08;11.93;;;4.07;;
79308;SDS011;68767;53.078;7.386;2023-07-02T01:06:36;11.75;;;5.10;;
79308;SDS011;68767;53.078;7.386;2023-07-02T01:09:08;11.15;;;4.60;;
79308;SDS011;68767;53.078;7.386;2023-07-02T01:11:40;16.20;;;4.60;;
79308;SDS011;68767;53.078;7.386;2023-07-02T01:14:11;14.07;;;4.97;;
79308;SDS011;68767;53.078;7.386;2023-07-02T01:16:41;9.38;;;4.60;;
79308;SDS011;68767;53.078;7.386;2023-07-02T01:19:11;12.20;;;4.60;;
79308;SDS011;68767;53.078;7.386;2023-07-02T01:22:00;11.02;;;4.50;;
79308;SDS011;68767;53.078;7.386;2023-07-02T01:24:28;12.43;;;4.43;;
79308;SDS011;68767;53.078;7.386;2023-07-02T01:26:55;16.30;;;4.60;;
79308;SDS011;68767;53.078;7.386;2023-07-02T01:29:22;12.98;;;4.90;;
79308;SDS011;68767;53.078;7.386;2023-07-02T01:31:49;13.10;;;4.45;;
79308;SDS011;68767;53.078;7.386;2023-07-02T01:34:16;17.98;;;5.68;;
79308;SDS011;68767;53.078;7.386;2023-07-02T01:36:43;18.80;;;5.10;;
79308;SDS011;68767;53.078;7.386;2023-07-02T01:39:10;19.92;;;5.50;;
79308;SDS011;68767;53.078;7.386;2023-07-02T01:44:16;12.35;;;4.97;;
79308;SDS011;68767;53.078;7.386;2023-07-02T01:46:44;16.08;;;5.10;;
79308;SDS011;68767;53.078;7.386;2023-07-02T01:49:18;16.75;;;5.90;;
79308;SDS011;68767;53.078;7.386;2023-07-02T01:51:49;17.83;;;5.50;;
79308;SDS011;68767;53.078;7.386;2023-07-02T01:54:17;13.00;;;5.25;;
79308;SDS011;68767;53.078;7.386;2023-07-02T01:56:48;23.58;;;5.53;;
79308;SDS011;68767;53.078;7.386;2023-07-02T01:59:16;21.85;;;5.95;;
79308;SDS011;68767;53.078;7.386;2023-07-02T02:01:43;18.55;;;5.45;;
79308;SDS011;68767;53.078;7.386;2023-07-02T02:04:11;16.52;;;5.68;;
79308;SDS011;68767;53.078;7.386;2023-07-02T02:06:38;19.27;;;5.80;;
79308;SDS011;68767;53.078;7.386;2023-07-02T02:09:05;13.02;;;5.03;;
79308;SDS011;68767;53.078;7.386;2023-07-02T02:11:34;13.55;;;5.65;;
79308;SDS011;68767;53.078;7.386;2023-07-02T02:14:03;24.08;;;6.25;;
79308;SDS011;68767;53.078;7.386;2023-07-02T02:16:30;19.38;;;5.40;;
79308;SDS011;68767;53.078;7.386;2023-07-02T02:18:57;15.20;;;5.90;;
79308;SDS011;68767;53.078;7.386;2023-07-02T02:21:24;17.20;;;5.60;;
79308;SDS011;68767;53.078;7.386;2023-07-02T02:23:51;20.25;;;6.68;;
79308;SDS011;68767;53.078;7.386;2023-07-02T02:26:18;22.35;;;7.00;;
79308;SDS011;68767;53.078;7.386;2023-07-02T02:28:48;17.58;;;5.82;;
79308;SDS011;68767;53.078;7.386;2023-07-02T02:31:16;21.90;;;5.90;;
79308;SDS011;68767;53.078;7.386;2023-07-02T02:33:43;16.25;;;5.70;;
79308;SDS011;68767;53.078;7.386;2023-07-02T02:36:10;16.27;;;6.28;;
79308;SDS011;68767;53.078;7.386;2023-07-02T02:38:38;19.27;;;5.43;;
79308;SDS011;68767;53.078;7.386;2023-07-02T02:41:05;20.83;;;6.35;;
79308;SDS011;68767;53.078;7.386;2023-07-02T02:43:43;19.90;;;6.43;;
79308;SDS011;68767;53.078;7.386;2023-07-02T02:46:12;20.98;;;6.15;;
79308;SDS011;68767;53.078;7.386;2023-07-02T02:48:39;24.13;;;6.65;;
79308;SDS011;68767;53.078;7.386;2023-07-02T02:51:06;20.70;;;6.30;;
79308;SDS011;68767;53.078;7.386;2023-07-02T02:53:33;22.30;;;7.22;;
79308;SDS011;68767;53.078;7.386;2023-07-02T02:56:02;20.58;;;6.53;;
79308;SDS011;68767;53.078;7.386;2023-07-02T02:58:29;23.42;;;6.13;;
79308;SDS011;68767;53.078;7.386;2023-07-02T03:00:57;17.98;;;5.80;;
79308;SDS011;68767;53.078;7.386;2023-07-02T03:03:23;20.17;;;6.22;;
79308;SDS011;68767;53.078;7.386;2023-07-02T03:05:51;21.45;;;7.63;;
79308;SDS011;68767;53.078;7.386;2023-07-02T03:08:18;20.38;;;6.78;;
79308;SDS011;68767;53.078;7.386;2023-07-02T03:10:45;19.50;;;5.75;;
79308;SDS011;68767;53.078;7.386;2023-07-02T03:13:12;22.13;;;6.40;;
79308;SDS011;68767;53.078;7.386;2023-07-02T03:15:39;23.13;;;6.00;;
79308;SDS011;68767;53.078;7.386;2023-07-02T03:18:06;19.00;;;6.90;;
79308;SDS011;68767;53.078;7.386;2023-07-02T03:20:33;24.58;;;6.45;;
79308;SDS011;68767;53.078;7.386;2023-07-02T03:23:00;18.85;;;6.65;;
79308;SDS011;68767;53.078;7.386;2023-07-02T03:25:27;18.00;;;6.53;;
79308;SDS011;68767;53.078;7.386;2023-07-02T03:27:54;25.95;;;7.82;;
79308;SDS011;68767;53.078;7.386;2023-07-02T03:30:21;25.63;;;6.43;;
79308;SDS011;68767;53.078;7.386;2023-07-02T03:32:48;21.17;;;7.22;;
79308;SDS011;68767;53.078;7.386;2023-07-02T03:35:15;23.50;;;5.82;;
79308;SDS011;68767;53.078;7.386;2023-07-02T03:37:42;30.52;;;7.85;;
79308;SDS011;68767;53.078;7.386;2023-07-02T03:40:10;25.70;;;7.13;;
79308;SDS011;68767;53.078;7.386;2023-07-02T03:42:37;24.77;;;7.97;;
79308;SDS011;68767;53.078;7.386;2023-07-02T03:45:04;22.00;;;7.05;;
79308;SDS011;68767;53.078;7.386;2023-07-02T03:47:31;27.10;;;7.00;;
79308;SDS011;68767;53.078;7.386;2023-07-02T03:49:58;21.60;;;7.25;;
79308;SDS011;68767;53.078;7.386;2023-07-02T03:52:25;35.63;;;8.13;;
79308;SDS011;68767;53.078;7.386;2023-07-02T03:54:52;28.33;;;6.70;;
79308;SDS011;68767;53.078;7.386;2023-07-02T03:57:19;26.90;;;7.03;;
79308;SDS011;68767;53.078;7.386;2023-07-02T03:59:46;23.50;;;7.43;;
79308;SDS011;68767;53.078;7.386;2023-07-02T04:02:13;30.45;;;7.65;;
79308;SDS011;68767;53.078;7.386;2023-07-02T04:04:40;34.63;;;7.43;;
79308;SDS011;68767;53.078;7.386;2023-07-02T04:07:07;24.70;;;6.40;;
79308;SDS011;68767;53.078;7.386;2023-07-02T04:09:34;25.45;;;6.68;;
79308;SDS011;68767;53.078;7.386;2023-07-02T04:12:01;21.98;;;7.10;;
79308;SDS011;68767;53.078;7.386;2023-07-02T04:14:28;24.30;;;7.38;;
79308;SDS011;68767;53.078;7.386;2023-07-02T04:16:55;35.00;;;8.55;;
79308;SDS011;68767;53.078;7.386;2023-07-02T04:19:22;25.50;;;6.88;;
79308;SDS011;68767;53.078;7.386;2023-07-02T04:21:49;22.88;;;7.85;;
79308;SDS011;68767;53.078;7.386;2023-07-02T04:24:16;20.70;;;6.38;;
79308;SDS011;68767;53.078;7.386;2023-07-02T04:26:44;30.75;;;7.10;;
79308;SDS011;68767;53.078;7.386;2023-07-02T04:29:31;23.42;;;6.28;;
79308;SDS011;68767;53.078;7.386;2023-07-02T04:31:58;30.30;;;7.57;;
79308;SDS011;68767;53.078;7.386;2023-07-02T04:34:25;29.08;;;7.07;;
79308;SDS011;68767;53.078;7.386;2023-07-02T04:36:52;29.02;;;7.75;;
79308;SDS011;68767;53.078;7.386;2023-07-02T04:39:20;22.63;;;7.22;;
79308;SDS011;68767;53.078;7.386;2023-07-02T04:41:47;24.92;;;7.30;;
79308;SDS011;68767;53.078;7.386;2023-07-02T04:44:19;28.92;;;7.50;;
79308;SDS011;68767;53.078;7.386;2023-07-02T04:46:48;35.25;;;7.63;;
79308;SDS011;68767;53.078;7.386;2023-07-02T04:49:15;23.95;;;6.88;;
79308;SDS011;68767;53.078;7.386;2023-07-02T04:51:42;27.48;;;6.70;;
79308;SDS011;68767;53.078;7.386;2023-07-02T04:54:09;25.27;;;7.05;;
79308;SDS011;68767;53.078;7.386;2023-07-02T04:56:36;28.67;;;7.80;;
79308;SDS011;68767;53.078;7.386;2023-07-02T04:59:03;21.95;;;7.22;;
79308;SDS011;68767;53.078;7.386;2023-07-02T05:01:30;24.90;;;7.72;;
79308;SDS011;68767;53.078;7.386;2023-07-02T05:03:57;28.77;;;7.63;;
79308;SDS011;68767;53.078;7.386;2023-07-02T05:06:24;27.35;;;6.82;;
79308;SDS011;68767;53.078;7.386;2023-07-02T05:08:51;24.35;;;6.80;;
79308;SDS011;68767;53.078;7.386;2023-07-02T05:11:19;32.42;;;6.93;;
79308;SDS011;68767;53.078;7.386;2023-07-02T05:13:46;32.00;;;8.13;;
79308;SDS011;68767;53.078;7.386;2023-07-02T05:16:13;21.52;;;7.05;;
79308;SDS011;68767;53.078;7.386;2023-07-02T05:18:41;27.48;;;6.65;;
79308;SDS011;68767;53.078;7.386;2023-07-02T05:21:08;28.15;;;6.65;;
79308;SDS011;68767;53.078;7.386;2023-07-02T05:23:35;24.00;;;7.10;;
79308;SDS011;68767;53.078;7.386;2023-07-02T05:26:02;28.08;;;7.90;;
79308;SDS011;68767;53.078;7.386;2023-07-02T05:28:29;28.00;;;6.85;;
79308;SDS011;68767;53.078;7.386;2023-07-02T05:30:56;24.38;;;6.80;;
79308;SDS011;68767;53.078;7.386;2023-07-02T05:33:23;25.58;;;7.55;;
79308;SDS011;68767;53.078;7.386;2023-07-02T05:35:50;32.80;;;7.43;;
79308;SDS011;68767;53.078;7.386;2023-07-02T05:38:17;32.60;;;7.95;;
79308;SDS011;68767;53.078;7.386;2023-07-02T05:40:45;19.63;;;6.57;;
79308;SDS011;68767;53.078;7.386;2023-07-02T05:43:13;21.40;;;7.03;;
79308;SDS011;68767;53.078;7.386;2023-07-02T05:45:40;31.23;;;6.13;;
79308;SDS011;68767;53.078;7.386;2023-07-02T05:48:07;26.15;;;7.22;;
79308;SDS011;68767;53.078;7.386;2023-07-02T05:50:34;27.83;;;8.50;;
79308;SDS011;68767;53.078;7.386;2023-07-02T05:53:01;23.15;;;7.57;;
79308;SDS011;68767;53.078;7.386;2023-07-02T05:55:28;34.33;;;8.18;;
79308;SDS011;68767;53.078;7.386;2023-07-02T05:57:55;22.83;;;5.82;;
79308;SDS011;68767;53.078;7.386;2023-07-02T06:00:24;20.20;;;6.45;;
79308;SDS011;68767;53.078;7.386;2023-07-02T06:02:51;28.83;;;6.60;;
79308;SDS011;68767;53.078;7.386;2023-07-02T06:05:18;21.98;;;6.45;;
79308;SDS011;68767;53.078;7.386;2023-07-02T06:07:45;16.02;;;5.63;;
79308;SDS011;68767;53.078;7.386;2023-07-02T06:10:12;20.15;;;6.90;;
79308;SDS011;68767;53.078;7.386;2023-07-02T06:12:39;20.90;;;6.32;;
79308;SDS011;68767;53.078;7.386;2023-07-02T06:15:06;24.92;;;6.80;;
79308;SDS011;68767;53.078;7.386;2023-07-02T06:17:33;21.38;;;6.05;;
79308;SDS011;68767;53.078;7.386;2023-07-02T06:20:05;21.20;;;6.45;;
79308;SDS011;68767;53.078;7.386;2023-07-02T06:22:33;22.33;;;7.20;;
79308;SDS011;68767;53.078;7.386;2023-07-02T06:25:00;20.05;;;4.97;;
79308;SDS011;68767;53.078;7.386;2023-07-02T06:27:30;34.53;;;6.55;;
79308;SDS011;68767;53.078;7.386;2023-07-02T06:29:57;22.92;;;6.75;;
79308;SDS011;68767;53.078;7.386;2023-07-02T06:32:24;18.38;;;5.32;;
79308;SDS011;68767;53.078;7.386;2023-07-02T06:34:51;28.95;;;6.60;;
79308;SDS011;68767;53.078;7.386;2023-07-02T06:37:18;29.77;;;6.18;;
79308;SDS011;68767;53.078;7.386;2023-07-02T06:39:45;23.90;;;5.22;;
79308;SDS011;68767;53.078;7.386;2023-07-02T06:42:12;20.38;;;6.78;;
79308;SDS011;68767;53.078;7.386;2023-07-02T06:44:40;29.77;;;9.20;;
79308;SDS011;68767;53.078;7.386;2023-07-02T06:47:07;25.08;;;6.72;;
79308;SDS011;68767;53.078;7.386;2023-07-02T06:49:34;16.95;;;5.22;;
79308;SDS011;68767;53.078;7.386;2023-07-02T06:52:01;21.88;;;6.50;;
79308;SDS011;68767;53.078;7.386;2023-07-02T06:54:28;21.45;;;5.38;;
79308;SDS011;68767;53.078;7.386;2023-07-02T06:56:55;25.08;;;7.03;;
79308;SDS011;68767;53.078;7.386;2023-07-02T06:59:22;17.38;;;5.65;;
79308;SDS011;68767;53.078;7.386;2023-07-02T07:01:50;16.85;;;6.00;;
79308;SDS011;68767;53.078;7.386;2023-07-02T07:04:17;13.63;;;5.00;;
79308;SDS011;68767;53.078;7.386;2023-07-02T07:06:45;25.52;;;5.50;;
79308;SDS011;68767;53.078;7.386;2023-07-02T07:09:12;18.25;;;5.07;;
79308;SDS011;68767;53.078;7.386;2023-07-02T07:11:39;16.63;;;4.78;;
79308;SDS011;68767;53.078;7.386;2023-07-02T07:14:06;18.73;;;5.45;;
79308;SDS011;68767;53.078;7.386;2023-07-02T07:16:33;15.40;;;4.47;;
79308;SDS011;68767;53.078;7.386;2023-07-02T07:19:00;20.10;;;5.60;;
79308;SDS011;68767;53.078;7.386;2023-07-02T07:21:27;18.95;;;5.25;;
79308;SDS011;68767;53.078;7.386;2023-07-02T07:23:54;19.58;;;5.05;;
79308;SDS011;68767;53.078;7.386;2023-07-02T07:26:21;14.60;;;4.55;;
79308;SDS011;68767;53.078;7.386;2023-07-02T07:28:48;16.70;;;4.95;;
79308;SDS011;68767;53.078;7.386;2023-07-02T07:31:16;18.17;;;5.28;;
79308;SDS011;68767;53.078;7.386;2023-07-02T07:33:43;16.83;;;4.45;;
79308;SDS011;68767;53.078;7.386;2023-07-02T07:36:10;18.83;;;4.75;;
79308;SDS011;68767;53.078;7.386;2023-07-02T07:38:37;23.88;;;5.40;;
79308;SDS011;68767;53.078;7.386;2023-07-02T07:41:04;21.45;;;5.28;;
79308;SDS011;68767;53.078;7.386;2023-07-02T07:43:31;14.05;;;4.20;;
79308;SDS011;68767;53.078;7.386;2023-07-02T07:45:58;15.48;;;4.75;;
79308;SDS011;68767;53.078;7.386;2023-07-02T07:48:26;16.48;;;4.15;;
79308;SDS011;68767;53.078;7.386;2023-07-02T07:50:53;15.07;;;4.68;;
79308;SDS011;68767;53.078;7.386;2023-07-02T07:53:20;17.02;;;4.32;;
79308;SDS011;68767;53.078;7.386;2023-07-02T07:55:47;12.40;;;4.47;;
79308;SDS011;68767;53.078;7.386;2023-07-02T07:58:14;9.93;;;4.63;;
79308;SDS011;68767;53.078;7.386;2023-07-02T08:00:41;17.70;;;4.72;;
79308;SDS011;68767;53.078;7.386;2023-07-02T08:03:10;14.10;;;4.95;;
79308;SDS011;68767;53.078;7.386;2023-07-02T08:05:37;14.23;;;3.83;;
79308;SDS011;68767;53.078;7.386;2023-07-02T08:08:04;12.13;;;4.22;;
79308;SDS011;68767;53.078;7.386;2023-07-02T08:10:31;16.38;;;3.75;;
79308;SDS011;68767;53.078;7.386;2023-07-02T08:12:58;17.55;;;4.30;;
79308;SDS011;68767;53.078;7.386;2023-07-02T08:15:25;14.07;;;3.72;;
79308;SDS011;68767;53.078;7.386;2023-07-02T08:17:52;13.20;;;3.80;;
79308;SDS011;68767;53.078;7.386;2023-07-02T08:20:21;13.57;;;3.30;;
79308;SDS011;68767;53.078;7.386;2023-07-02T08:22:48;13.00;;;3.17;;
79308;SDS011;68767;53.078;7.386;2023-07-02T08:25:18;13.45;;;3.50;;
79308;SDS011;68767;53.078;7.386;2023-07-02T08:27:45;14.35;;;3.33;;
79308;SDS011;68767;53.078;7.386;2023-07-02T08:30:12;13.85;;;3.40;;
79308;SDS011;68767;53.078;7.386;2023-07-02T08:32:39;15.48;;;4.00;;
79308;SDS011;68767;53.078;7.386;2023-07-02T08:35:06;11.98;;;3.83;;
79308;SDS011;68767;53.078;7.386;2023-07-02T08:37:33;6.13;;;2.88;;
79308;SDS011;68767;53.078;7.386;2023-07-02T08:40:00;11.05;;;3.38;;
79308;SDS011;68767;53.078;7.386;2023-07-02T08:42:27;10.10;;;3.20;;
79308;SDS011;68767;53.078;7.386;2023-07-02T08:44:56;14.18;;;3.22;;
79308;SDS011;68767;53.078;7.386;2023-07-02T08:47:25;9.48;;;3.05;;
79308;SDS011;68767;53.078;7.386;2023-07-02T08:49:52;18.90;;;3.22;;
79308;SDS011;68767;53.078;7.386;2023-07-02T08:52:19;11.90;;;2.75;;
79308;SDS011;68767;53.078;7.386;2023-07-02T08:54:47;7.25;;;2.80;;
79308;SDS011;68767;53.078;7.386;2023-07-02T08:57:14;10.07;;;2.58;;
79308;SDS011;68767;53.078;7.386;2023-07-02T08:59:41;10.63;;;2.80;;
79308;SDS011;68767;53.078;7.386;2023-07-02T09:02:08;11.05;;;2.53;;
79308;SDS011;68767;53.078;7.386;2023-07-02T09:04:35;11.23;;;2.63;;
79308;SDS011;68767;53.078;7.386;2023-07-02T09:07:03;9.90;;;2.70;;
79308;SDS011;68767;53.078;7.386;2023-07-02T09:09:31;11.45;;;2.85;;
79308;SDS011;68767;53.078;7.386;2023-07-02T09:11:59;13.23;;;3.15;;
79308;SDS011;68767;53.078;7.386;2023-07-02T09:14:27;10.40;;;2.78;;
79308;SDS011;68767;53.078;7.386;2023-07-02T09:19:31;10.25;;;2.58;;
79308;SDS011;68767;53.078;7.386;2023-07-02T09:21:59;11.20;;;3.15;;
79308;SDS011;68767;53.078;7.386;2023-07-02T09:24:32;10.55;;;2.95;;
79308;SDS011;68767;53.078;7.386;2023-07-02T09:27:00;12.52;;;3.00;;
79308;SDS011;68767;53.078;7.386;2023-07-02T09:29:29;13.23;;;3.30;;
79308;SDS011;68767;53.078;7.386;2023-07-02T09:34:36;15.30;;;3.30;;
79308;SDS011;68767;53.078;7.386;2023-07-02T09:37:05;12.32;;;3.60;;
79308;SDS011;68767;53.078;7.386;2023-07-02T09:39:33;14.07;;;3.67;;
79308;SDS011;68767;53.078;7.386;2023-07-02T09:42:05;11.90;;;3.22;;
79308;SDS011;68767;53.078;7.386;2023-07-02T09:44:33;10.68;;;3.30;;
79308;SDS011;68767;53.078;7.386;2023-07-02T09:47:05;13.95;;;4.05;;
79308;SDS011;68767;53.078;7.386;2023-07-02T09:52:08;18.15;;;3.25;;
79308;SDS011;68767;53.078;7.386;2023-07-02T09:54:36;9.90;;;3.92;;
79308;SDS011;68767;53.078;7.386;2023-07-02T09:57:04;16.48;;;5.35;;
79308;SDS011;68767;53.078;7.386;2023-07-02T09:59:35;15.35;;;5.10;;
79308;SDS011;68767;53.078;7.386;2023-07-02T10:02:02;11.68;;;3.38;;
79308;SDS011;68767;53.078;7.386;2023-07-02T10:04:39;9.57;;;3.38;;
79308;SDS011;68767;53.078;7.386;2023-07-02T10:07:08;13.63;;;3.70;;
79308;SDS011;68767;53.078;7.386;2023-07-02T10:14:46;11.63;;;3.42;;
79308;SDS011;68767;53.078;7.386;2023-07-02T10:19:59;17.15;;;3.72;;
79308;SDS011;68767;53.078;7.386;2023-07-02T10:22:44;9.63;;;3.67;;
79308;SDS011;68767;53.078;7.386;2023-07-02T10:25:12;13.00;;;3.92;;
79308;SDS011;68767;53.078;7.386;2023-07-02T10:27:41;13.82;;;3.42;;
79308;SDS011;68767;53.078;7.386;2023-07-02T10:30:09;17.27;;;6.00;;
79308;SDS011;68767;53.078;7.386;2023-07-02T10:32:37;19.10;;;5.00;;
79308;SDS011;68767;53.078;7.386;2023-07-02T10:35:15;13.50;;;4.13;;
79308;SDS011;68767;53.078;7.386;2023-07-02T10:37:43;14.95;;;3.00;;
79308;SDS011;68767;53.078;7.386;2023-07-02T10:40:10;16.00;;;3.42;;
79308;SDS011;68767;53.078;7.386;2023-07-02T10:42:48;14.35;;;4.55;;
79308;SDS011;68767;53.078;7.386;2023-07-02T10:45:17;14.18;;;4.00;;
79308;SDS011;68767;53.078;7.386;2023-07-02T10:47:45;11.40;;;3.20;;
79308;SDS011;68767;53.078;7.386;2023-07-02T10:50:13;11.07;;;3.92;;
79308;SDS011;68767;53.078;7.386;2023-07-02T10:52:44;21.58;;;4.75;;
79308;SDS011;68767;53.078;7.386;2023-07-02T10:57:45;9.32;;;3.40;;
79308;SDS011;68767;53.078;7.386;2023-07-02T11:00:13;12.57;;;3.13;;
79308;SDS011;68767;53.078;7.386;2023-07-02T11:02:41;5.93;;;2.95;;
79308;SDS011;68767;53.078;7.386;2023-07-02T11:05:08;14.95;;;3.10;;
79308;SDS011;68767;53.078;7.386;2023-07-02T11:07:41;12.45;;;3.55;;
79308;SDS011;68767;53.078;7.386;2023-07-02T11:10:09;8.55;;;2.75;;
79308;SDS011;68767;53.078;7.386;2023-07-02T11:12:38;9.13;;;2.72;;
79308;SDS011;68767;53.078;7.386;2023-07-02T11:17:36;9.27;;;2.90;;
79308;SDS011;68767;53.078;7.386;2023-07-02T11:20:04;9.57;;;3.00;;
79308;SDS011;68767;53.078;7.386;2023-07-02T11:22:32;14.07;;;3.50;;
79308;SDS011;68767;53.078;7.386;2023-07-02T11:27:36;12.88;;;3.20;;
79308;SDS011;68767;53.078;7.386;2023-07-02T11:30:04;12.65;;;3.25;;
79308;SDS011;68767;53.078;7.386;2023-07-02T11:32:34;10.15;;;3.00;;
79308;SDS011;68767;53.078;7.386;2023-07-02T11:35:13;11.95;;;3.10;;
79308;SDS011;68767;53.078;7.386;2023-07-02T11:37:40;12.07;;;3.55;;
79308;SDS011;68767;53.078;7.386;2023-07-02T11:40:07;11.20;;;3.10;;
79308;SDS011;68767;53.078;7.386;2023-07-02T11:42:34;12.10;;;3.05;;
79308;SDS011;68767;53.078;7.386;2023-07-02T11:45:01;15.13;;;3.25;;
79308;SDS011;68767;53.078;7.386;2023-07-02T11:47:28;14.73;;;3.38;;
79308;SDS011;68767;53.078;7.386;2023-07-02T11:49:55;16.15;;;3.00;;
79308;SDS011;68767;53.078;7.386;2023-07-02T11:52:22;8.75;;;2.90;;
79308;SDS011;68767;53.078;7.386;2023-07-02T11:54:49;10.50;;;2.83;;
79308;SDS011;68767;53.078;7.386;2023-07-02T11:57:15;9.38;;;2.67;;
79308;SDS011;68767;53.078;7.386;2023-07-02T11:59:42;10.52;;;2.67;;
79308;SDS011;68767;53.078;7.386;2023-07-02T12:02:09;9.98;;;2.63;;
79308;SDS011;68767;53.078;7.386;2023-07-02T12:04:36;10.85;;;3.72;;
79308;SDS011;68767;53.078;7.386;2023-07-02T12:07:03;14.27;;;3.20;;
79308;SDS011;68767;53.078;7.386;2023-07-02T12:09:31;11.75;;;2.63;;
79308;SDS011;68767;53.078;7.386;2023-07-02T12:11:58;8.68;;;3.15;;
79308;SDS011;68767;53.078;7.386;2023-07-02T12:14:24;10.25;;;2.50;;
79308;SDS011;68767;53.078;7.386;2023-07-02T12:16:51;11.98;;;3.08;;
79308;SDS011;68767;53.078;7.386;2023-07-02T12:19:18;11.02;;;3.05;;
79308;SDS011;68767;53.078;7.386;2023-07-02T12:21:45;17.98;;;4.28;;
79308;SDS011;68767;53.078;7.386;2023-07-02T12:24:12;12.95;;;2.90;;
79308;SDS011;68767;53.078;7.386;2023-07-02T12:26:39;9.80;;;3.33;;
79308;SDS011;68767;53.078;7.386;2023-07-02T12:29:07;8.43;;;3.20;;
79308;SDS011;68767;53.078;7.386;2023-07-02T12:31:34;9.63;;;2.72;;
79308;SDS011;68767;53.078;7.386;2023-07-02T12:34:01;7.93;;;2.92;;
79308;SDS011;68767;53.078;7.386;2023-07-02T12:36:29;8.15;;;2.38;;
79308;SDS011;68767;53.078;7.386;2023-07-02T12:38:56;7.63;;;2.45;;
79308;SDS011;68767;53.078;7.386;2023-07-02T12:41:23;10.23;;;2.60;;
79308;SDS011;68767;53.078;7.386;2023-07-02T12:43:50;6.88;;;2.10;;
79308;SDS011;68767;53.078;7.386;2023-07-02T12:46:17;7.10;;;2.60;;
79308;SDS011;68767;53.078;7.386;2023-07-02T12:48:44;12.43;;;2.72;;
79308;SDS011;68767;53.078;7.386;2023-07-02T12:51:11;11.13;;;2.90;;
79308;SDS011;68767;53.078;7.386;2023-07-02T12:53:37;9.60;;;2.78;;
79308;SDS011;68767;53.078;7.386;2023-07-02T12:56:04;9.45;;;2.40;;
79308;SDS011;68767;53.078;7.386;2023-07-02T12:58:32;9.98;;;3.03;;
79308;SDS011;68767;53.078;7.386;2023-07-02T13:00:59;9.50;;;2.88;;
79308;SDS011;68767;53.078;7.386;2023-07-02T13:03:30;9.73;;;2.95;;
79308;SDS011;68767;53.078;7.386;2023-07-02T13:05:57;13.23;;;2.72;;
79308;SDS011;68767;53.078;7.386;2023-07-02T13:08:24;7.80;;;2.65;;
79308;SDS011;68767;53.078;7.386;2023-07-02T13:10:51;10.25;;;2.47;;
79308;SDS011;68767;53.078;7.386;2023-07-02T13:13:18;7.07;;;2.75;;
79308;SDS011;68767;53.078;7.386;2023-07-02T13:15:50;8.82;;;2.85;;
79308;SDS011;68767;53.078;7.386;2023-07-02T13:18:17;8.80;;;2.53;;
79308;SDS011;68767;53.078;7.386;2023-07-02T13:20:44;8.63;;;2.92;;
79308;SDS011;68767;53.078;7.386;2023-07-02T13:23:11;9.80;;;2.35;;
79308;SDS011;68767;53.078;7.386;2023-07-02T13:25:38;7.93;;;2.40;;
79308;SDS011;68767;53.078;7.386;2023-07-02T13:28:05;13.27;;;2.38;;
79308;SDS011;68767;53.078;7.386;2023-07-02T13:30:32;11.25;;;2.63;;
79308;SDS011;68767;53.078;7.386;2023-07-02T13:32:59;7.63;;;2.38;;
79308;SDS011;68767;53.078;7.386;2023-07-02T13:35:26;10.15;;;2.50;;
79308;SDS011;68767;53.078;7.386;2023-07-02T13:37:53;12.00;;;3.05;;
79308;SDS011;68767;53.078;7.386;2023-07-02T13:40:20;6.78;;;2.28;;
79308;SDS011;68767;53.078;7.386;2023-07-02T13:42:47;12.43;;;2.80;;
79308;SDS011;68767;53.078;7.386;2023-07-02T13:45:14;8.30;;;2.05;;
79308;SDS011;68767;53.078;7.386;2023-07-02T13:47:41;10.57;;;2.75;;
79308;SDS011;68767;53.078;7.386;2023-07-02T13:50:08;8.88;;;2.35;;
79308;SDS011;68767;53.078;7.386;2023-07-02T13:52:35;8.60;;;2.72;;
79308;SDS011;68767;53.078;7.386;2023-07-02T13:55:03;7.47;;;2.42;;
79308;SDS011;68767;53.078;7.386;2023-07-02T13:57:30;11.55;;;2.85;;
79308;SDS011;68767;53.078;7.386;2023-07-02T13:59:57;9.13;;;2.60;;
79308;SDS011;68767;53.078;7.386;2023-07-02T14:02:24;14.45;;;3.25;;
79308;SDS011;68767;53.078;7.386;2023-07-02T14:04:52;9.40;;;3.30;;
79308;SDS011;68767;53.078;7.386;2023-07-02T14:07:19;7.28;;;2.80;;
79308;SDS011;68767;53.078;7.386;2023-07-02T14:09:46;8.98;;;2.70;;
79308;SDS011;68767;53.078;7.386;2023-07-02T14:12:13;8.55;;;3.15;;
79308;SDS011;68767;53.078;7.386;2023-07-02T14:14:40;8.93;;;2.80;;
79308;SDS011;68767;53.078;7.386;2023-07-02T14:17:07;8.15;;;3.08;;
79308;SDS011;68767;53.078;7.386;2023-07-02T14:19:34;11.88;;;3.03;;
79308;SDS011;68767;53.078;7.386;2023-07-02T14:22:01;8.32;;;2.95;;
79308;SDS011;68767;53.078;7.386;2023-07-02T14:24:28;9.30;;;3.30;;
79308;SDS011;68767;53.078;7.386;2023-07-02T14:26:57;9.93;;;3.20;;
79308;SDS011;68767;53.078;7.386;2023-07-02T14:29:24;13.48;;;3.60;;
79308;SDS011;68767;53.078;7.386;2023-07-02T14:34:20;11.95;;;3.47;;
79308;SDS011;68767;53.078;7.386;2023-07-02T14:36:49;14.93;;;3.95;;
79308;SDS011;68767;53.078;7.386;2023-07-02T14:39:16;11.00;;;3.95;;
79308;SDS011;68767;53.078;7.386;2023-07-02T14:41:43;11.77;;;3.70;;
79308;SDS011;68767;53.078;7.386;2023-07-02T14:44:10;15.20;;;3.53;;
79308;SDS011;68767;53.078;7.386;2023-07-02T14:46:36;16.38;;;4.82;;
79308;SDS011;68767;53.078;7.386;2023-07-02T14:49:04;13.57;;;3.55;;
79308;SDS011;68767;53.078;7.386;2023-07-02T14:51:30;8.40;;;3.90;;
79308;SDS011;68767;53.078;7.386;2023-07-02T14:53:57;14.05;;;3.50;;
79308;SDS011;68767;53.078;7.386;2023-07-02T14:56:26;14.90;;;4.88;;
79308;SDS011;68767;53.078;7.386;2023-07-02T14:58:52;9.90;;;3.92;;
79308;SDS011;68767;53.078;7.386;2023-07-02T15:01:19;8.95;;;3.25;;
79308;SDS011;68767;53.078;7.386;2023-07-02T15:03:47;12.75;;;4.22;;
79308;SDS011;68767;53.078;7.386;2023-07-02T15:06:15;11.38;;;4.00;;
79308;SDS011;68767;53.078;7.386;2023-07-02T15:08:44;11.82;;;3.80;;